sensor_id;sensor_type;location;lat;lon;timestamp;temperature;humidity
21799;DHT22;24973;47.178;15.316;2022-10-16T00:01:07;10.80;99.90
21799;DHT22;24973;47.178;15.316;2022-10-16T00:04:00;10.80;99.90
21799;DHT22;24973;47.178;15.316;2022-10-16T00:06:49;10.70;99.90
21799;DHT22;24973;47.178;15.316;2022-10-16T00:09:38;10.70;99.90
21799;DHT22;24973;47.178;15.316;2022-10-16T00:12:27;10.70;99.90
21799;DHT22;24973;47.178;15.316;2022-10-16T00:15:16;10.70;99.90
21799;DHT22;24973;47.178;15.316;2022-10-16T00:18:06;10.70;99.90
21799;DHT22;24973;47.178;15.316;2022-10-16T00:21:02;10.80;99.90
21799;DHT22;24973;47.178;15.316;2022-10-16T00:23:52;10.80;99.90
21799;DHT22;24973;47.178;15.316;2022-10-16T00:26:41;10.90;99.90
21799;DHT22;24973;47.178;15.316;2022-10-16T00:29:30;10.90;99.90
21799;DHT22;24973;47.178;15.316;2022-10-16T00:32:19;10.80;99.90
21799;DHT22;24973;47.178;15.316;2022-10-16T00:35:08;10.80;99.90
21799;DHT22;24973;47.178;15.316;2022-10-16T00:37:58;10.80;99.90
21799;DHT22;24973;47.178;15.316;2022-10-16T00:40:47;10.80;99.90
21799;DHT22;24973;47.178;15.316;2022-10-16T00:43:39;10.80;99.90
21799;DHT22;24973;47.178;15.316;2022-10-16T00:46:31;10.80;99.90
21799;DHT22;24973;47.178;15.316;2022-10-16T00:49:22;10.70;99.90
21799;DHT22;24973;47.178;15.316;2022-10-16T00:52:11;10.60;99.90
21799;DHT22;24973;47.178;15.316;2022-10-16T00:55:04;10.50;99.90
21799;DHT22;24973;47.178;15.316;2022-10-16T00:57:54;10.50;99.90
21799;DHT22;24973;47.178;15.316;2022-10-16T01:00:42;10.50;99.90
21799;DHT22;24973;47.178;15.316;2022-10-16T01:03:33;10.50;99.90
21799;DHT22;24973;47.178;15.316;2022-10-16T01:06:26;10.40;99.90
21799;DHT22;24973;47.178;15.316;2022-10-16T01:09:23;10.30;99.90
21799;DHT22;24973;47.178;15.316;2022-10-16T01:12:25;10.30;99.90
21799;DHT22;24973;47.178;15.316;2022-10-16T01:15:26;10.40;99.90
21799;DHT22;24973;47.178;15.316;2022-10-16T01:18:21;10.40;99.90
21799;DHT22;24973;47.178;15.316;2022-10-16T01:21:15;10.30;99.90
21799;DHT22;24973;47.178;15.316;2022-10-16T01:24:11;10.20;99.90
21799;DHT22;24973;47.178;15.316;2022-10-16T01:27:10;10.20;99.90
21799;DHT22;24973;47.178;15.316;2022-10-16T01:30:03;10.30;99.90
21799;DHT22;24973;47.178;15.316;2022-10-16T01:32:58;10.40;99.90
21799;DHT22;24973;47.178;15.316;2022-10-16T01:35:53;10.40;99.90
21799;DHT22;24973;47.178;15.316;2022-10-16T01:38:44;10.50;99.90
21799;DHT22;24973;47.178;15.316;2022-10-16T01:41:40;10.40;99.90
21799;DHT22;24973;47.178;15.316;2022-10-16T01:44:33;10.30;99.90
21799;DHT22;24973;47.178;15.316;2022-10-16T01:47:25;10.20;99.90
21799;DHT22;24973;47.178;15.316;2022-10-16T01:50:16;10.30;99.90
21799;DHT22;24973;47.178;15.316;2022-10-16T01:53:08;10.20;99.90
21799;DHT22;24973;47.178;15.316;2022-10-16T01:56:00;10.20;99.90
21799;DHT22;24973;47.178;15.316;2022-10-16T01:58:54;10.10;99.90
21799;DHT22;24973;47.178;15.316;2022-10-16T02:01:49;10.10;99.90
21799;DHT22;24973;47.178;15.316;2022-10-16T02:04:43;10.10;99.90
21799;DHT22;24973;47.178;15.316;2022-10-16T02:07:34;10.20;99.90
21799;DHT22;24973;47.178;15.316;2022-10-16T02:10:23;10.30;99.90
21799;DHT22;24973;47.178;15.316;2022-10-16T02:13:16;10.30;99.90
21799;DHT22;24973;47.178;15.316;2022-10-16T02:16:06;10.40;99.90
21799;DHT22;24973;47.178;15.316;2022-10-16T02:18:57;10.50;99.90
21799;DHT22;24973;47.178;15.316;2022-10-16T02:21:50;10.50;99.90
21799;DHT22;24973;47.178;15.316;2022-10-16T02:24:45;10.50;99.90
21799;DHT22;24973;47.178;15.316;2022-10-16T02:27:44;10.60;99.90
21799;DHT22;24973;47.178;15.316;2022-10-16T02:30:39;10.60;99.90
21799;DHT22;24973;47.178;15.316;2022-10-16T02:33:32;10.50;99.90
21799;DHT22;24973;47.178;15.316;2022-10-16T02:36:23;10.50;99.90
21799;DHT22;24973;47.178;15.316;2022-10-16T02:39:12;10.50;99.90
21799;DHT22;24973;47.178;15.316;2022-10-16T02:42:02;10.50;99.90
21799;DHT22;24973;47.178;15.316;2022-10-16T02:44:50;10.40;99.90
21799;DHT22;24973;47.178;15.316;2022-10-16T02:47:39;10.30;99.90
21799;DHT22;24973;47.178;15.316;2022-10-16T02:50:28;10.30;99.90
21799;DHT22;24973;47.178;15.316;2022-10-16T02:53:18;10.30;99.90
21799;DHT22;24973;47.178;15.316;2022-10-16T02:56:07;10.30;99.90
21799;DHT22;24973;47.178;15.316;2022-10-16T02:58:56;10.40;99.90
21799;DHT22;24973;47.178;15.316;2022-10-16T03:01:45;10.50;99.90
21799;DHT22;24973;47.178;15.316;2022-10-16T03:04:34;10.50;99.90
21799;DHT22;24973;47.178;15.316;2022-10-16T03:07:22;10.50;99.90
21799;DHT22;24973;47.178;15.316;2022-10-16T03:10:13;10.50;99.90
21799;DHT22;24973;47.178;15.316;2022-10-16T03:13:01;10.60;99.90
21799;DHT22;24973;47.178;15.316;2022-10-16T03:15:50;10.70;99.90
21799;DHT22;24973;47.178;15.316;2022-10-16T03:18:39;10.70;99.90
21799;DHT22;24973;47.178;15.316;2022-10-16T03:21:28;10.80;99.90
21799;DHT22;24973;47.178;15.316;2022-10-16T03:24:17;10.80;99.90
21799;DHT22;24973;47.178;15.316;2022-10-16T03:27:07;10.70;99.90
21799;DHT22;24973;47.178;15.316;2022-10-16T03:29:56;10.60;99.90
21799;DHT22;24973;47.178;15.316;2022-10-16T03:32:45;10.50;99.90
21799;DHT22;24973;47.178;15.316;2022-10-16T03:35:33;10.50;99.90
21799;DHT22;24973;47.178;15.316;2022-10-16T03:38:22;10.40;99.90
21799;DHT22;24973;47.178;15.316;2022-10-16T03:41:11;10.40;99.90
21799;DHT22;24973;47.178;15.316;2022-10-16T03:44:01;10.50;99.90
21799;DHT22;24973;47.178;15.316;2022-10-16T03:46:50;10.60;99.90
21799;DHT22;24973;47.178;15.316;2022-10-16T03:49:39;10.60;99.90
21799;DHT22;24973;47.178;15.316;2022-10-16T03:52:28;10.70;99.90
21799;DHT22;24973;47.178;15.316;2022-10-16T03:55:16;10.80;99.90
21799;DHT22;24973;47.178;15.316;2022-10-16T03:58:05;10.80;99.90
21799;DHT22;24973;47.178;15.316;2022-10-16T04:00:55;10.70;99.90
21799;DHT22;24973;47.178;15.316;2022-10-16T04:03:44;10.70;99.90
21799;DHT22;24973;47.178;15.316;2022-10-16T04:06:33;10.60;99.90
21799;DHT22;24973;47.178;15.316;2022-10-16T04:09:21;10.60;99.90
21799;DHT22;24973;47.178;15.316;2022-10-16T04:12:10;10.60;99.90
21799;DHT22;24973;47.178;15.316;2022-10-16T04:14:59;10.60;99.90
21799;DHT22;24973;47.178;15.316;2022-10-16T04:17:49;10.60;99.90
21799;DHT22;24973;47.178;15.316;2022-10-16T04:20:38;10.60;99.90
21799;DHT22;24973;47.178;15.316;2022-10-16T04:23:27;10.60;99.90
21799;DHT22;24973;47.178;15.316;2022-10-16T04:26:16;10.60;99.90
21799;DHT22;24973;47.178;15.316;2022-10-16T04:29:05;10.70;99.90
21799;DHT22;24973;47.178;15.316;2022-10-16T04:31:54;10.80;99.90
21799;DHT22;24973;47.178;15.316;2022-10-16T04:34:44;11.50;99.90
21799;DHT22;24973;47.178;15.316;2022-10-16T04:37:33;10.80;99.90
21799;DHT22;24973;47.178;15.316;2022-10-16T04:40:22;10.80;99.90
21799;DHT22;24973;47.178;15.316;2022-10-16T04:43:10;10.70;99.90
21799;DHT22;24973;47.178;15.316;2022-10-16T04:45:59;10.70;99.90
21799;DHT22;24973;47.178;15.316;2022-10-16T04:48:48;10.70;99.90
21799;DHT22;24973;47.178;15.316;2022-10-16T04:51:39;10.70;99.90
21799;DHT22;24973;47.178;15.316;2022-10-16T04:54:27;10.70;99.90
21799;DHT22;24973;47.178;15.316;2022-10-16T04:57:16;10.70;99.90
21799;DHT22;24973;47.178;15.316;2022-10-16T05:00:06;10.70;99.90
21799;DHT22;24973;47.178;15.316;2022-10-16T05:02:56;10.70;99.90
21799;DHT22;24973;47.178;15.316;2022-10-16T05:05:46;10.60;99.90
21799;DHT22;24973;47.178;15.316;2022-10-16T05:08:36;10.40;99.90
21799;DHT22;24973;47.178;15.316;2022-10-16T05:11:25;10.50;99.90
21799;DHT22;24973;47.178;15.316;2022-10-16T05:14:14;10.50;99.90
21799;DHT22;24973;47.178;15.316;2022-10-16T05:17:03;10.50;99.90
21799;DHT22;24973;47.178;15.316;2022-10-16T05:19:52;10.60;99.90
21799;DHT22;24973;47.178;15.316;2022-10-16T05:22:41;10.60;99.90
21799;DHT22;24973;47.178;15.316;2022-10-16T05:25:31;10.60;99.90
21799;DHT22;24973;47.178;15.316;2022-10-16T05:28:20;10.60;99.90
21799;DHT22;24973;47.178;15.316;2022-10-16T05:31:09;10.60;99.90
21799;DHT22;24973;47.178;15.316;2022-10-16T05:33:58;10.60;99.90
21799;DHT22;24973;47.178;15.316;2022-10-16T05:36:48;10.60;99.90
21799;DHT22;24973;47.178;15.316;2022-10-16T05:39:37;10.60;99.90
21799;DHT22;24973;47.178;15.316;2022-10-16T05:42:27;10.60;99.90
21799;DHT22;24973;47.178;15.316;2022-10-16T05:45:16;10.60;99.90
21799;DHT22;24973;47.178;15.316;2022-10-16T05:48:05;10.60;99.90
21799;DHT22;24973;47.178;15.316;2022-10-16T05:50:57;10.50;99.90
21799;DHT22;24973;47.178;15.316;2022-10-16T05:53:46;10.50;99.90
21799;DHT22;24973;47.178;15.316;2022-10-16T05:56:35;10.60;99.90
21799;DHT22;24973;47.178;15.316;2022-10-16T05:59:25;10.50;99.90
21799;DHT22;24973;47.178;15.316;2022-10-16T06:02:14;10.40;99.90
21799;DHT22;24973;47.178;15.316;2022-10-16T06:05:04;10.40;99.90
21799;DHT22;24973;47.178;15.316;2022-10-16T06:07:53;10.40;99.90
21799;DHT22;24973;47.178;15.316;2022-10-16T06:10:42;10.40;99.90
21799;DHT22;24973;47.178;15.316;2022-10-16T06:13:31;10.60;99.90
21799;DHT22;24973;47.178;15.316;2022-10-16T06:16:21;10.70;99.90
21799;DHT22;24973;47.178;15.316;2022-10-16T06:19:13;10.80;99.90
21799;DHT22;24973;47.178;15.316;2022-10-16T06:22:03;10.80;99.90
21799;DHT22;24973;47.178;15.316;2022-10-16T06:24:52;10.80;99.90
21799;DHT22;24973;47.178;15.316;2022-10-16T06:27:41;10.70;99.90
21799;DHT22;24973;47.178;15.316;2022-10-16T06:30:30;10.70;99.90
21799;DHT22;24973;47.178;15.316;2022-10-16T06:33:20;10.80;99.90
21799;DHT22;24973;47.178;15.316;2022-10-16T06:36:11;10.80;99.90
21799;DHT22;24973;47.178;15.316;2022-10-16T06:39:01;10.80;99.90
21799;DHT22;24973;47.178;15.316;2022-10-16T06:41:50;10.80;99.90
21799;DHT22;24973;47.178;15.316;2022-10-16T06:44:39;10.80;99.90
21799;DHT22;24973;47.178;15.316;2022-10-16T06:47:28;10.80;99.90
21799;DHT22;24973;47.178;15.316;2022-10-16T06:50:19;10.90;99.90
21799;DHT22;24973;47.178;15.316;2022-10-16T06:53:08;11.00;99.90
21799;DHT22;24973;47.178;15.316;2022-10-16T06:55:56;11.10;99.90
21799;DHT22;24973;47.178;15.316;2022-10-16T06:58:46;11.20;99.90
21799;DHT22;24973;47.178;15.316;2022-10-16T07:01:35;11.30;99.90
21799;DHT22;24973;47.178;15.316;2022-10-16T07:04:24;11.40;99.90
21799;DHT22;24973;47.178;15.316;2022-10-16T07:07:14;11.50;99.90
21799;DHT22;24973;47.178;15.316;2022-10-16T07:10:04;11.70;99.90
21799;DHT22;24973;47.178;15.316;2022-10-16T07:12:53;11.80;99.90
21799;DHT22;24973;47.178;15.316;2022-10-16T07:15:44;11.80;99.90
21799;DHT22;24973;47.178;15.316;2022-10-16T07:18:40;11.80;99.90
21799;DHT22;24973;47.178;15.316;2022-10-16T07:21:31;11.90;99.90
21799;DHT22;24973;47.178;15.316;2022-10-16T07:24:24;12.00;99.90
21799;DHT22;24973;47.178;15.316;2022-10-16T07:27:13;12.00;99.90
21799;DHT22;24973;47.178;15.316;2022-10-16T07:30:04;12.10;99.90
21799;DHT22;24973;47.178;15.316;2022-10-16T07:32:54;12.30;99.90
21799;DHT22;24973;47.178;15.316;2022-10-16T07:35:50;12.50;99.90
21799;DHT22;24973;47.178;15.316;2022-10-16T07:38:39;12.70;99.90
21799;DHT22;24973;47.178;15.316;2022-10-16T07:41:30;12.90;99.90
21799;DHT22;24973;47.178;15.316;2022-10-16T07:44:23;12.20;99.90
21799;DHT22;24973;47.178;15.316;2022-10-16T07:47:12;13.30;99.90
21799;DHT22;24973;47.178;15.316;2022-10-16T07:50:01;13.40;99.90
21799;DHT22;24973;47.178;15.316;2022-10-16T07:52:50;13.50;99.90
21799;DHT22;24973;47.178;15.316;2022-10-16T07:55:39;13.70;99.90
21799;DHT22;24973;47.178;15.316;2022-10-16T07:58:29;13.80;99.90
21799;DHT22;24973;47.178;15.316;2022-10-16T08:01:19;14.00;99.90
21799;DHT22;24973;47.178;15.316;2022-10-16T08:04:08;14.10;99.90
21799;DHT22;24973;47.178;15.316;2022-10-16T08:06:57;14.20;99.90
21799;DHT22;24973;47.178;15.316;2022-10-16T08:12:37;14.50;99.90
21799;DHT22;24973;47.178;15.316;2022-10-16T08:15:27;14.60;99.90
21799;DHT22;24973;47.178;15.316;2022-10-16T08:18:16;14.80;99.90
21799;DHT22;24973;47.178;15.316;2022-10-16T08:21:10;15.00;99.90
21799;DHT22;24973;47.178;15.316;2022-10-16T08:24:03;15.20;99.90
21799;DHT22;24973;47.178;15.316;2022-10-16T08:26:53;15.50;99.90
21799;DHT22;24973;47.178;15.316;2022-10-16T08:29:42;15.70;99.90
21799;DHT22;24973;47.178;15.316;2022-10-16T08:32:32;16.00;99.90
21799;DHT22;24973;47.178;15.316;2022-10-16T08:35:21;16.20;99.90
21799;DHT22;24973;47.178;15.316;2022-10-16T08:38:09;16.40;99.90
21799;DHT22;24973;47.178;15.316;2022-10-16T08:41:13;16.60;99.90
21799;DHT22;24973;47.178;15.316;2022-10-16T08:47:44;17.00;99.90
21799;DHT22;24973;47.178;15.316;2022-10-16T08:50:39;17.20;99.90
21799;DHT22;24973;47.178;15.316;2022-10-16T08:53:31;17.30;99.90
21799;DHT22;24973;47.178;15.316;2022-10-16T08:56:25;17.40;99.90
21799;DHT22;24973;47.178;15.316;2022-10-16T08:59:16;17.50;99.90
21799;DHT22;24973;47.178;15.316;2022-10-16T09:02:24;17.60;99.90
21799;DHT22;24973;47.178;15.316;2022-10-16T09:05:25;17.70;99.90
21799;DHT22;24973;47.178;15.316;2022-10-16T09:08:30;17.80;99.90
21799;DHT22;24973;47.178;15.316;2022-10-16T09:11:34;18.00;99.90
21799;DHT22;24973;47.178;15.316;2022-10-16T09:14:45;18.10;99.90
21799;DHT22;24973;47.178;15.316;2022-10-16T09:17:48;18.20;99.90
21799;DHT22;24973;47.178;15.316;2022-10-16T09:20:49;18.40;99.90
21799;DHT22;24973;47.178;15.316;2022-10-16T09:23:39;18.50;99.90
21799;DHT22;24973;47.178;15.316;2022-10-16T09:26:28;18.60;99.90
21799;DHT22;24973;47.178;15.316;2022-10-16T09:29:18;18.80;99.90
21799;DHT22;24973;47.178;15.316;2022-10-16T09:32:12;18.90;99.90
21799;DHT22;24973;47.178;15.316;2022-10-16T09:35:03;19.10;99.90
21799;DHT22;24973;47.178;15.316;2022-10-16T09:37:54;19.20;99.90
21799;DHT22;24973;47.178;15.316;2022-10-16T09:40:43;19.30;99.90
21799;DHT22;24973;47.178;15.316;2022-10-16T09:43:38;19.40;99.90
21799;DHT22;24973;47.178;15.316;2022-10-16T09:46:31;19.50;99.90
21799;DHT22;24973;47.178;15.316;2022-10-16T09:49:22;19.60;99.90
21799;DHT22;24973;47.178;15.316;2022-10-16T09:52:14;19.70;99.90
21799;DHT22;24973;47.178;15.316;2022-10-16T09:55:15;19.80;99.90
21799;DHT22;24973;47.178;15.316;2022-10-16T09:58:13;19.90;99.90
21799;DHT22;24973;47.178;15.316;2022-10-16T10:01:02;20.10;99.90
21799;DHT22;24973;47.178;15.316;2022-10-16T10:03:51;20.30;99.90
21799;DHT22;24973;47.178;15.316;2022-10-16T10:06:49;20.40;99.90
21799;DHT22;24973;47.178;15.316;2022-10-16T10:09:42;20.60;99.90
21799;DHT22;24973;47.178;15.316;2022-10-16T10:12:35;20.80;99.90
21799;DHT22;24973;47.178;15.316;2022-10-16T10:15:34;20.80;99.90
21799;DHT22;24973;47.178;15.316;2022-10-16T10:18:29;21.10;99.90
21799;DHT22;24973;47.178;15.316;2022-10-16T10:21:21;21.20;99.90
21799;DHT22;24973;47.178;15.316;2022-10-16T10:24:13;21.50;99.90
21799;DHT22;24973;47.178;15.316;2022-10-16T10:27:06;21.80;99.90
21799;DHT22;24973;47.178;15.316;2022-10-16T10:30:04;22.30;99.90
21799;DHT22;24973;47.178;15.316;2022-10-16T10:33:12;22.70;99.90
21799;DHT22;24973;47.178;15.316;2022-10-16T10:36:15;23.10;99.90
21799;DHT22;24973;47.178;15.316;2022-10-16T10:39:15;23.40;99.90
21799;DHT22;24973;47.178;15.316;2022-10-16T10:42:15;23.60;99.90
21799;DHT22;24973;47.178;15.316;2022-10-16T10:45:26;24.00;99.90
21799;DHT22;24973;47.178;15.316;2022-10-16T10:48:24;23.60;99.90
21799;DHT22;24973;47.178;15.316;2022-10-16T10:51:26;24.80;99.90
21799;DHT22;24973;47.178;15.316;2022-10-16T10:54:24;25.00;99.90
21799;DHT22;24973;47.178;15.316;2022-10-16T10:57:32;25.40;99.90
21799;DHT22;24973;47.178;15.316;2022-10-16T11:00:28;25.80;99.90
21799;DHT22;24973;47.178;15.316;2022-10-16T11:03:31;25.60;97.70
21799;DHT22;24973;47.178;15.316;2022-10-16T11:06:31;26.40;94.60
21799;DHT22;24973;47.178;15.316;2022-10-16T11:09:23;26.10;94.90
21799;DHT22;24973;47.178;15.316;2022-10-16T11:12:17;26.10;93.20
21799;DHT22;24973;47.178;15.316;2022-10-16T11:15:14;26.20;93.80
21799;DHT22;24973;47.178;15.316;2022-10-16T11:18:08;26.60;94.10
21799;DHT22;24973;47.178;15.316;2022-10-16T11:21:04;26.90;91.90
21799;DHT22;24973;47.178;15.316;2022-10-16T11:23:58;27.00;92.40
21799;DHT22;24973;47.178;15.316;2022-10-16T11:26:50;27.20;90.60
21799;DHT22;24973;47.178;15.316;2022-10-16T11:29:45;27.20;89.40
21799;DHT22;24973;47.178;15.316;2022-10-16T11:32:52;27.20;89.60
21799;DHT22;24973;47.178;15.316;2022-10-16T11:35:50;27.40;86.40
21799;DHT22;24973;47.178;15.316;2022-10-16T11:38:49;27.20;83.20
21799;DHT22;24973;47.178;15.316;2022-10-16T11:41:45;27.20;86.10
21799;DHT22;24973;47.178;15.316;2022-10-16T11:44:44;27.50;86.40
21799;DHT22;24973;47.178;15.316;2022-10-16T11:47:43;27.80;83.70
21799;DHT22;24973;47.178;15.316;2022-10-16T11:50:50;28.10;83.70
21799;DHT22;24973;47.178;15.316;2022-10-16T11:53:46;28.20;81.20
21799;DHT22;24973;47.178;15.316;2022-10-16T11:56:41;28.30;79.30
21799;DHT22;24973;47.178;15.316;2022-10-16T11:59:36;28.40;79.90
21799;DHT22;24973;47.178;15.316;2022-10-16T12:02:38;28.40;74.90
21799;DHT22;24973;47.178;15.316;2022-10-16T12:05:39;28.30;74.90
21799;DHT22;24973;47.178;15.316;2022-10-16T12:08:40;28.20;74.30
21799;DHT22;24973;47.178;15.316;2022-10-16T12:11:35;28.20;73.20
21799;DHT22;24973;47.178;15.316;2022-10-16T12:14:37;28.40;72.60
21799;DHT22;24973;47.178;15.316;2022-10-16T12:17:48;28.60;72.50
21799;DHT22;24973;47.178;15.316;2022-10-16T12:20:38;28.90;71.30
21799;DHT22;24973;47.178;15.316;2022-10-16T12:23:38;29.20;72.30
21799;DHT22;24973;47.178;15.316;2022-10-16T12:26:38;29.70;71.20
21799;DHT22;24973;47.178;15.316;2022-10-16T12:29:33;30.20;69.40
21799;DHT22;24973;47.178;15.316;2022-10-16T12:32:28;30.50;67.40
21799;DHT22;24973;47.178;15.316;2022-10-16T12:35:42;30.80;67.10
21799;DHT22;24973;47.178;15.316;2022-10-16T12:38:37;30.90;63.80
21799;DHT22;24973;47.178;15.316;2022-10-16T12:41:28;30.80;63.20
21799;DHT22;24973;47.178;15.316;2022-10-16T12:44:23;29.90;62.70
21799;DHT22;24973;47.178;15.316;2022-10-16T12:47:20;29.30;66.10
21799;DHT22;24973;47.178;15.316;2022-10-16T12:50:31;29.80;68.70
21799;DHT22;24973;47.178;15.316;2022-10-16T12:53:23;30.40;67.90
21799;DHT22;24973;47.178;15.316;2022-10-16T12:56:19;31.00;66.60
21799;DHT22;24973;47.178;15.316;2022-10-16T12:59:18;31.50;65.20
21799;DHT22;24973;47.178;15.316;2022-10-16T13:02:41;31.90;62.70
21799;DHT22;24973;47.178;15.316;2022-10-16T13:05:49;31.90;61.80
21799;DHT22;24973;47.178;15.316;2022-10-16T13:09:03;32.00;61.80
21799;DHT22;24973;47.178;15.316;2022-10-16T13:12:13;31.80;61.30
21799;DHT22;24973;47.178;15.316;2022-10-16T13:15:22;31.90;61.70
21799;DHT22;24973;47.178;15.316;2022-10-16T13:18:21;32.00;61.50
21799;DHT22;24973;47.178;15.316;2022-10-16T13:21:23;31.90;60.80
21799;DHT22;24973;47.178;15.316;2022-10-16T13:24:27;31.80;62.20
21799;DHT22;24973;47.178;15.316;2022-10-16T13:27:32;32.10;61.90
21799;DHT22;24973;47.178;15.316;2022-10-16T13:30:28;32.00;61.00
21799;DHT22;24973;47.178;15.316;2022-10-16T13:33:20;32.00;61.20
21799;DHT22;24973;47.178;15.316;2022-10-16T13:36:19;32.20;61.20
21799;DHT22;24973;47.178;15.316;2022-10-16T13:39:12;32.50;61.10
21799;DHT22;24973;47.178;15.316;2022-10-16T13:42:06;32.70;58.40
21799;DHT22;24973;47.178;15.316;2022-10-16T13:45:01;32.50;59.30
21799;DHT22;24973;47.178;15.316;2022-10-16T13:47:50;32.40;58.90
21799;DHT22;24973;47.178;15.316;2022-10-16T13:51:06;32.30;58.90
21799;DHT22;24973;47.178;15.316;2022-10-16T13:54:01;32.30;59.00
21799;DHT22;24973;47.178;15.316;2022-10-16T13:56:50;32.30;59.20
21799;DHT22;24973;47.178;15.316;2022-10-16T13:59:48;32.30;57.80
21799;DHT22;24973;47.178;15.316;2022-10-16T14:02:43;32.20;58.50
21799;DHT22;24973;47.178;15.316;2022-10-16T14:05:35;32.10;58.70
21799;DHT22;24973;47.178;15.316;2022-10-16T14:08:25;32.10;58.40
21799;DHT22;24973;47.178;15.316;2022-10-16T14:11:21;32.10;58.70
21799;DHT22;24973;47.178;15.316;2022-10-16T14:14:11;32.20;58.60
21799;DHT22;24973;47.178;15.316;2022-10-16T14:17:00;32.10;58.20
21799;DHT22;24973;47.178;15.316;2022-10-16T14:19:55;32.20;58.30
21799;DHT22;24973;47.178;15.316;2022-10-16T14:22:45;32.30;58.30
21799;DHT22;24973;47.178;15.316;2022-10-16T14:25:34;32.20;57.50
21799;DHT22;24973;47.178;15.316;2022-10-16T14:28:23;32.00;57.70
21799;DHT22;24973;47.178;15.316;2022-10-16T14:31:27;31.90;58.30
21799;DHT22;24973;47.178;15.316;2022-10-16T14:34:25;31.90;59.20
21799;DHT22;24973;47.178;15.316;2022-10-16T14:37:21;32.00;59.00
21799;DHT22;24973;47.178;15.316;2022-10-16T14:40:14;32.10;59.10
21799;DHT22;24973;47.178;15.316;2022-10-16T14:43:04;32.00;59.20
21799;DHT22;24973;47.178;15.316;2022-10-16T14:45:55;32.10;59.40
21799;DHT22;24973;47.178;15.316;2022-10-16T14:48:47;31.90;58.70
21799;DHT22;24973;47.178;15.316;2022-10-16T14:51:37;31.70;59.10
21799;DHT22;24973;47.178;15.316;2022-10-16T14:54:29;31.50;59.50
21799;DHT22;24973;47.178;15.316;2022-10-16T14:57:19;31.30;60.50
21799;DHT22;24973;47.178;15.316;2022-10-16T15:00:16;30.60;61.00
21799;DHT22;24973;47.178;15.316;2022-10-16T15:03:06;29.70;62.20
21799;DHT22;24973;47.178;15.316;2022-10-16T15:05:55;28.80;63.30
21799;DHT22;24973;47.178;15.316;2022-10-16T15:08:44;27.10;66.80
21799;DHT22;24973;47.178;15.316;2022-10-16T15:11:34;25.60;70.60
21799;DHT22;24973;47.178;15.316;2022-10-16T15:14:23;24.40;74.00
21799;DHT22;24973;47.178;15.316;2022-10-16T15:17:11;23.50;77.20
21799;DHT22;24973;47.178;15.316;2022-10-16T15:20:00;22.90;80.40
21799;DHT22;24973;47.178;15.316;2022-10-16T15:22:49;22.20;84.40
21799;DHT22;24973;47.178;15.316;2022-10-16T15:25:41;21.50;88.80
21799;DHT22;24973;47.178;15.316;2022-10-16T15:28:32;20.90;90.70
21799;DHT22;24973;47.178;15.316;2022-10-16T15:31:23;20.30;92.60
21799;DHT22;24973;47.178;15.316;2022-10-16T15:34:12;19.90;93.80
21799;DHT22;24973;47.178;15.316;2022-10-16T15:37:03;19.60;95.40
21799;DHT22;24973;47.178;15.316;2022-10-16T15:39:52;19.30;97.50
21799;DHT22;24973;47.178;15.316;2022-10-16T15:42:40;19.00;99.70
21799;DHT22;24973;47.178;15.316;2022-10-16T15:45:31;18.70;99.90
21799;DHT22;24973;47.178;15.316;2022-10-16T15:48:19;18.50;99.90
21799;DHT22;24973;47.178;15.316;2022-10-16T15:51:08;18.40;99.90
21799;DHT22;24973;47.178;15.316;2022-10-16T15:53:57;18.20;99.90
21799;DHT22;24973;47.178;15.316;2022-10-16T15:56:48;18.00;99.90
21799;DHT22;24973;47.178;15.316;2022-10-16T15:59:37;17.80;99.90
21799;DHT22;24973;47.178;15.316;2022-10-16T16:02:27;17.60;99.90
21799;DHT22;24973;47.178;15.316;2022-10-16T16:05:17;17.40;99.90
21799;DHT22;24973;47.178;15.316;2022-10-16T16:08:06;17.20;99.90
21799;DHT22;24973;47.178;15.316;2022-10-16T16:10:58;17.20;99.90
21799;DHT22;24973;47.178;15.316;2022-10-16T16:13:47;17.10;99.90
21799;DHT22;24973;47.178;15.316;2022-10-16T16:16:36;17.00;99.90
21799;DHT22;24973;47.178;15.316;2022-10-16T16:19:26;16.80;99.90
21799;DHT22;24973;47.178;15.316;2022-10-16T16:22:15;16.80;99.90
21799;DHT22;24973;47.178;15.316;2022-10-16T16:25:04;16.70;99.90
21799;DHT22;24973;47.178;15.316;2022-10-16T16:27:53;16.60;99.90
21799;DHT22;24973;47.178;15.316;2022-10-16T16:30:42;16.50;99.90
21799;DHT22;24973;47.178;15.316;2022-10-16T16:33:31;16.60;99.90
21799;DHT22;24973;47.178;15.316;2022-10-16T16:36:21;16.60;99.90
21799;DHT22;24973;47.178;15.316;2022-10-16T16:39:15;16.60;99.90
21799;DHT22;24973;47.178;15.316;2022-10-16T16:42:04;16.60;99.90
21799;DHT22;24973;47.178;15.316;2022-10-16T16:44:54;16.40;99.90
21799;DHT22;24973;47.178;15.316;2022-10-16T16:47:43;16.30;99.90
21799;DHT22;24973;47.178;15.316;2022-10-16T16:50:35;16.30;99.90
21799;DHT22;24973;47.178;15.316;2022-10-16T16:53:25;16.20;99.90
21799;DHT22;24973;47.178;15.316;2022-10-16T16:56:14;16.00;99.90
21799;DHT22;24973;47.178;15.316;2022-10-16T16:59:03;15.70;99.90
21799;DHT22;24973;47.178;15.316;2022-10-16T17:01:51;15.50;99.90
21799;DHT22;24973;47.178;15.316;2022-10-16T17:04:42;15.50;99.90
21799;DHT22;24973;47.178;15.316;2022-10-16T17:07:32;15.50;99.90
21799;DHT22;24973;47.178;15.316;2022-10-16T17:10:23;15.50;99.90
21799;DHT22;24973;47.178;15.316;2022-10-16T17:13:11;15.60;99.90
21799;DHT22;24973;47.178;15.316;2022-10-16T17:16:00;15.70;99.90
21799;DHT22;24973;47.178;15.316;2022-10-16T17:18:49;15.70;99.90
21799;DHT22;24973;47.178;15.316;2022-10-16T17:21:39;15.50;99.90
21799;DHT22;24973;47.178;15.316;2022-10-16T17:24:28;15.40;99.90
21799;DHT22;24973;47.178;15.316;2022-10-16T17:27:18;15.40;99.90
21799;DHT22;24973;47.178;15.316;2022-10-16T17:30:08;15.40;99.90
21799;DHT22;24973;47.178;15.316;2022-10-16T17:32:57;15.50;99.90
21799;DHT22;24973;47.178;15.316;2022-10-16T17:35:46;15.60;99.90
21799;DHT22;24973;47.178;15.316;2022-10-16T17:38:35;15.50;99.90
21799;DHT22;24973;47.178;15.316;2022-10-16T17:41:24;15.40;99.90
21799;DHT22;24973;47.178;15.316;2022-10-16T17:44:14;15.30;99.90
21799;DHT22;24973;47.178;15.316;2022-10-16T17:47:06;15.20;99.90
21799;DHT22;24973;47.178;15.316;2022-10-16T17:49:55;15.30;99.90
21799;DHT22;24973;47.178;15.316;2022-10-16T17:52:45;15.30;99.90
21799;DHT22;24973;47.178;15.316;2022-10-16T17:55:37;15.30;99.90
21799;DHT22;24973;47.178;15.316;2022-10-16T17:58:26;15.20;99.90